createdAt,value
2019-02-25T00:01:52.191Z,74.30
2019-02-25T00:04:20.321Z,76.87
2019-02-25T00:06:48.643Z,79.47
2019-02-25T00:09:16.870Z,74.42
2019-02-25T00:11:45.088Z,74.62
2019-02-25T00:14:13.320Z,72.27
2019-02-25T00:16:41.606Z,80.50
2019-02-25T00:19:09.763Z,72.87
2019-02-25T00:21:37.980Z,83.15
2019-02-25T00:24:06.159Z,71.97
2019-02-25T00:26:34.475Z,91.17
2019-02-25T00:29:02.632Z,71.80
2019-02-25T00:31:30.954Z,76.00
2019-02-25T00:33:59.112Z,78.52
2019-02-25T00:36:27.342Z,84.17
2019-02-25T00:38:55.504Z,81.15
2019-02-25T00:41:23.737Z,78.97
2019-02-25T00:43:51.909Z,79.55
2019-02-25T00:46:20.132Z,78.62
2019-02-25T00:48:48.296Z,76.45
2019-02-25T00:51:16.535Z,78.12
2019-02-25T00:53:44.722Z,73.90
2019-02-25T00:56:12.932Z,78.30
2019-02-25T00:58:41.265Z,84.90
2019-02-25T01:01:09.490Z,72.95
2019-02-25T01:03:37.717Z,71.30
2019-02-25T01:06:05.941Z,78.07
2019-02-25T01:08:34.186Z,69.82
2019-02-25T01:11:02.408Z,70.00
2019-02-25T01:13:30.624Z,81.35
2019-02-25T01:15:58.879Z,70.45
2019-02-25T01:18:27.131Z,72.17
2019-02-25T01:20:55.331Z,77.53
2019-02-25T01:23:23.523Z,66.45
2019-02-25T01:25:51.738Z,76.30
2019-02-25T01:28:19.991Z,70.45
2019-02-25T01:30:48.194Z,64.32
2019-02-25T01:33:16.420Z,84.85
2019-02-25T01:35:44.589Z,73.40
2019-02-25T01:38:12.799Z,69.12
2019-02-25T01:40:40.950Z,67.35
2019-02-25T01:43:09.289Z,73.70
2019-02-25T01:45:37.500Z,73.97
2019-02-25T01:48:05.711Z,73.80
2019-02-25T01:50:33.917Z,67.10
2019-02-25T01:53:02.101Z,76.75
2019-02-25T01:55:30.269Z,73.72
2019-02-25T01:57:58.470Z,73.17
2019-02-25T02:00:26.640Z,71.75
2019-02-25T02:02:54.817Z,72.30
2019-02-25T02:05:24.545Z,70.95
2019-02-25T02:07:53.089Z,60.90
2019-02-25T02:10:21.367Z,61.83
2019-02-25T02:12:49.563Z,67.20
2019-02-25T02:15:17.838Z,70.45
2019-02-25T02:17:46.006Z,67.67
2019-02-25T02:20:14.750Z,70.10
2019-02-25T02:22:42.998Z,65.12
2019-02-25T02:25:11.309Z,70.12
2019-02-25T02:27:39.570Z,67.22
2019-02-25T02:30:12.019Z,64.60
2019-02-25T02:32:40.252Z,69.35
2019-02-25T02:35:08.546Z,64.15
2019-02-25T02:37:36.711Z,70.85
2019-02-25T02:40:05.778Z,70.97
2019-02-25T02:42:34.164Z,69.72
2019-02-25T02:45:35.209Z,62.67
2019-02-25T02:48:20.612Z,69.30
2019-02-25T02:50:48.750Z,63.02
2019-02-25T02:53:16.974Z,71.95
2019-02-25T02:55:45.200Z,70.67
2019-02-25T02:58:13.405Z,61.48
2019-02-25T03:00:41.662Z,67.70
2019-02-25T03:03:10.005Z,66.02
2019-02-25T03:05:38.233Z,60.23
2019-02-25T03:08:06.598Z,70.72
2019-02-25T03:10:34.892Z,62.35
2019-02-25T03:13:03.104Z,60.28
2019-02-25T03:15:31.337Z,62.35
2019-02-25T03:17:59.518Z,61.48
2019-02-25T03:20:27.720Z,60.50
2019-02-25T03:22:55.997Z,69.32
2019-02-25T03:25:24.367Z,63.08
2019-02-25T03:27:52.758Z,66.40
2019-02-25T03:30:22.583Z,65.65
2019-02-25T03:32:50.861Z,65.30
2019-02-25T03:35:19.060Z,68.40
2019-02-25T03:37:47.353Z,68.70
2019-02-25T03:40:17.627Z,62.25
2019-02-25T03:42:45.814Z,63.83
2019-02-25T03:45:15.737Z,57.55
2019-02-25T03:47:43.904Z,66.50
2019-02-25T03:50:12.323Z,60.58
2019-02-25T03:52:40.541Z,67.78
2019-02-25T03:55:14.260Z,58.48
2019-02-25T03:57:42.613Z,64.12
2019-02-25T04:00:19.494Z,70.90
2019-02-25T04:02:47.661Z,60.10
2019-02-25T04:05:15.979Z,60.85
2019-02-25T04:07:44.377Z,58.17
2019-02-25T04:10:12.876Z,60.10
2019-02-25T04:12:41.189Z,63.17
2019-02-25T04:15:15.461Z,57.17
2019-02-25T04:17:43.663Z,58.40
2019-02-25T04:20:13.523Z,56.90
2019-02-25T04:22:41.676Z,61.00
2019-02-25T04:25:09.962Z,62.90
2019-02-25T04:27:41.204Z,63.38
2019-02-25T04:30:12.795Z,66.92
2019-02-25T04:32:40.962Z,59.42
2019-02-25T04:35:09.936Z,63.58
2019-02-25T04:37:38.142Z,69.03
2019-02-25T04:40:08.301Z,64.03
2019-02-25T04:42:36.444Z,64.37
2019-02-25T04:45:07.078Z,57.33
2019-02-25T04:47:35.285Z,66.75
2019-02-25T04:50:03.794Z,65.28
2019-02-25T04:52:31.956Z,73.45
2019-02-25T04:55:00.384Z,63.50
2019-02-25T04:57:28.564Z,69.45
2019-02-25T04:59:56.807Z,64.30
2019-02-25T05:02:24.933Z,61.85
2019-02-25T05:04:53.164Z,70.03
2019-02-25T05:07:21.361Z,58.38
2019-02-25T05:09:49.693Z,63.63
2019-02-25T05:12:17.876Z,64.35
2019-02-25T05:14:46.270Z,64.85
2019-02-25T05:17:14.415Z,64.25
2019-02-25T05:19:42.620Z,62.80
2019-02-25T05:22:10.771Z,59.60
2019-02-25T05:24:39.033Z,68.28
2019-02-25T05:27:07.202Z,63.80
2019-02-25T05:29:35.544Z,72.80
2019-02-25T05:32:03.758Z,63.87
2019-02-25T05:34:31.955Z,71.30
2019-02-25T05:37:00.190Z,66.75
2019-02-25T05:39:28.304Z,64.42
2019-02-25T05:41:56.581Z,72.32
2019-02-25T05:44:24.843Z,59.15
2019-02-25T05:46:53.062Z,62.15
2019-02-25T05:49:21.223Z,67.10
2019-02-25T05:51:49.435Z,63.08
2019-02-25T05:54:17.594Z,66.22
2019-02-25T05:56:45.797Z,56.13
2019-02-25T05:59:13.973Z,61.77
2019-02-25T06:01:42.207Z,62.38
2019-02-25T06:04:10.386Z,62.98
2019-02-25T06:06:38.594Z,72.20
2019-02-25T06:09:06.773Z,64.15
2019-02-25T06:11:35.154Z,57.60
2019-02-25T06:14:04.388Z,57.70
2019-02-25T06:16:32.820Z,69.42
2019-02-25T06:19:01.256Z,60.63
2019-02-25T06:21:29.697Z,56.63
2019-02-25T06:23:57.960Z,66.77
2019-02-25T06:26:26.286Z,66.87
2019-02-25T06:28:54.517Z,67.70
2019-02-25T06:31:22.727Z,74.75
2019-02-25T06:33:51.025Z,65.28
2019-02-25T06:36:19.281Z,61.77
2019-02-25T06:38:47.573Z,67.20
2019-02-25T06:41:15.855Z,62.33
2019-02-25T06:43:44.057Z,60.98
2019-02-25T06:46:12.392Z,61.73
2019-02-25T06:48:40.573Z,59.80
2019-02-25T06:51:08.856Z,62.13
2019-02-25T06:53:37.170Z,58.23
2019-02-25T06:56:05.352Z,71.05
2019-02-25T06:58:33.530Z,71.57
2019-02-25T07:01:02.030Z,55.55
2019-02-25T07:03:30.215Z,55.15
2019-02-25T07:06:07.729Z,61.75
2019-02-25T07:09:07.779Z,61.23
2019-02-25T07:11:42.415Z,64.00
2019-02-25T07:14:33.109Z,71.85
2019-02-25T07:17:23.537Z,62.73
2019-02-25T07:22:58.503Z,70.78
2019-02-25T07:25:42.343Z,64.03
2019-02-25T07:28:36.736Z,66.45
2019-02-25T07:31:15.992Z,68.05
2019-02-25T07:34:09.658Z,70.65
2019-02-25T07:37:00.179Z,59.77
2019-02-25T07:39:35.743Z,60.30
2019-02-25T07:42:22.143Z,61.25
2019-02-25T07:45:11.289Z,65.22
2019-02-25T07:47:50.796Z,64.40
2019-02-25T07:50:47.132Z,58.90
2019-02-25T07:53:30.374Z,55.23
2019-02-25T07:56:21.164Z,59.60
2019-02-25T07:59:10.265Z,56.33
2019-02-25T08:02:03.874Z,54.58
2019-02-25T08:05:06.547Z,50.48
2019-02-25T08:08:09.902Z,57.80
2019-02-25T08:10:48.389Z,60.73
2019-02-25T08:13:37.358Z,54.23
2019-02-25T08:16:23.775Z,59.15
2019-02-25T08:19:10.340Z,56.88
2019-02-25T08:22:04.066Z,49.93
2019-02-25T08:24:54.431Z,53.55
2019-02-25T08:27:35.481Z,52.55
2019-02-25T08:30:38.433Z,54.05
2019-02-25T08:33:15.288Z,55.52
2019-02-25T08:37:02.743Z,52.03
2019-02-25T08:39:47.548Z,57.27
2019-02-25T08:42:44.724Z,49.20
2019-02-25T08:45:22.885Z,49.03
2019-02-25T08:47:57.330Z,46.85
2019-02-25T08:50:25.573Z,49.48
2019-02-25T08:52:53.813Z,49.00
2019-02-25T08:55:21.976Z,50.25
2019-02-25T08:57:50.131Z,48.60
2019-02-25T09:00:18.352Z,51.30
2019-02-25T09:02:46.555Z,51.37
2019-02-25T09:05:14.812Z,47.17
2019-02-25T09:07:43.120Z,51.58
2019-02-25T09:10:13.449Z,55.50
2019-02-25T09:12:42.106Z,50.28
2019-02-25T09:15:10.867Z,47.85
2019-02-25T09:17:44.009Z,54.03
2019-02-25T09:20:13.484Z,57.90
2019-02-25T09:22:41.891Z,48.73
2019-02-25T09:25:10.447Z,52.55
2019-02-25T09:27:38.700Z,51.50
2019-02-25T09:30:12.357Z,50.35
2019-02-25T09:32:40.557Z,53.38
2019-02-25T09:35:08.982Z,51.30
2019-02-25T09:37:37.378Z,54.53
2019-02-25T09:40:08.166Z,52.55
2019-02-25T09:45:06.020Z,48.80
2019-02-25T09:47:34.208Z,50.50
2019-02-25T09:50:02.431Z,50.23
2019-02-25T09:52:30.680Z,50.33
2019-02-25T09:54:58.889Z,49.10
2019-02-25T09:57:27.052Z,47.25
2019-02-25T09:59:55.325Z,47.48
2019-02-25T10:02:24.844Z,52.75
2019-02-25T10:04:53.172Z,56.28
2019-02-25T10:07:21.370Z,53.92
2019-02-25T10:09:49.560Z,55.90
2019-02-25T10:12:17.907Z,54.20
2019-02-25T10:14:46.173Z,53.15
2019-02-25T10:17:23.301Z,56.73
2019-02-25T10:19:44.463Z,54.73
2019-02-25T10:22:12.641Z,54.98
2019-02-25T10:24:40.827Z,55.92
2019-02-25T10:27:09.454Z,49.83
2019-02-25T10:29:37.627Z,54.55
2019-02-25T10:32:06.550Z,57.80
2019-02-25T10:34:34.947Z,51.50
2019-02-25T10:37:03.156Z,52.93
2019-02-25T10:39:31.363Z,57.33
2019-02-25T10:42:02.020Z,58.20
2019-02-25T10:46:59.783Z,60.23
2019-02-25T10:49:29.399Z,53.75
2019-02-25T10:51:58.174Z,54.63
2019-02-25T10:54:26.382Z,51.00
2019-02-25T10:57:14.558Z,53.50
2019-02-25T10:59:42.733Z,58.75
2019-02-25T11:02:11.669Z,55.95
2019-02-25T11:04:41.191Z,53.23
2019-02-25T11:07:09.752Z,50.83
2019-02-25T11:10:07.007Z,46.90
2019-02-25T11:12:35.422Z,59.48
2019-02-25T11:15:05.271Z,53.45
2019-02-25T11:17:34.266Z,54.83
2019-02-25T11:20:03.701Z,59.83
2019-02-25T11:22:32.651Z,53.33
2019-02-25T11:25:00.898Z,58.02
2019-02-25T11:27:31.339Z,62.33
2019-02-25T11:29:59.335Z,57.08
2019-02-25T11:32:27.999Z,55.17
2019-02-25T11:34:56.255Z,56.15
2019-02-25T11:37:26.571Z,53.40
2019-02-25T11:39:55.323Z,57.08
2019-02-25T11:42:24.798Z,61.63
2019-02-25T11:44:54.267Z,55.15
2019-02-25T11:47:23.197Z,62.40
2019-02-25T11:49:51.369Z,58.08
2019-02-25T11:52:19.627Z,57.70
2019-02-25T11:54:47.918Z,59.13
2019-02-25T11:57:16.136Z,57.23
2019-02-25T11:59:44.478Z,57.17
2019-02-25T12:02:12.655Z,58.45
2019-02-25T12:04:40.885Z,59.70
2019-02-25T12:07:09.188Z,58.70
2019-02-25T12:09:37.404Z,64.32
2019-02-25T12:12:05.614Z,60.28
2019-02-25T12:14:33.969Z,59.42
2019-02-25T12:17:02.255Z,65.22
2019-02-25T12:19:30.505Z,58.75
2019-02-25T12:21:58.711Z,62.78
2019-02-25T12:24:26.894Z,61.42
2019-02-25T12:26:55.163Z,61.88
2019-02-25T12:29:23.405Z,64.50
2019-02-25T12:31:51.636Z,61.90
2019-02-25T12:34:19.991Z,58.90
2019-02-25T12:36:48.197Z,60.17
2019-02-25T12:39:16.482Z,59.65
2019-02-25T12:41:44.636Z,62.93
2019-02-25T12:44:12.888Z,64.45
2019-02-25T12:46:41.079Z,61.88
2019-02-25T12:49:09.410Z,65.40
2019-02-25T12:51:37.629Z,62.40
2019-02-25T12:54:06.011Z,61.73
2019-02-25T12:56:34.267Z,66.75
2019-02-25T12:59:02.648Z,66.50
2019-02-25T13:01:30.936Z,69.82
2019-02-25T13:03:59.172Z,75.55
2019-02-25T13:06:27.345Z,71.53
2019-02-25T13:08:55.585Z,66.57
2019-02-25T13:11:23.820Z,66.12
2019-02-25T13:13:52.031Z,68.10
2019-02-25T13:16:20.336Z,68.78
2019-02-25T13:18:48.477Z,71.12
2019-02-25T13:21:16.682Z,66.00
2019-02-25T13:23:44.938Z,67.97
2019-02-25T13:26:13.079Z,70.05
2019-02-25T13:28:41.249Z,68.95
2019-02-25T13:31:10.218Z,68.65
2019-02-25T13:33:38.879Z,65.32
2019-02-25T13:36:11.770Z,66.00
2019-02-25T13:38:39.975Z,82.53
2019-02-25T13:41:08.399Z,70.90
2019-02-25T13:43:36.637Z,72.03
2019-02-25T13:46:04.812Z,77.85
2019-02-25T13:48:33.026Z,69.95
2019-02-25T13:51:01.354Z,75.80
2019-02-25T13:53:29.569Z,86.97
2019-02-25T13:55:57.745Z,72.37
2019-02-25T13:58:25.977Z,78.90
2019-02-25T14:00:54.156Z,81.05
2019-02-25T14:03:22.339Z,79.42
2019-02-25T14:05:50.542Z,78.20
2019-02-25T14:08:18.840Z,84.30
2019-02-25T14:10:47.168Z,81.70
2019-02-25T14:13:15.409Z,88.15
2019-02-25T14:15:43.677Z,85.67
2019-02-25T14:18:11.960Z,79.45
2019-02-25T14:20:40.111Z,83.80
2019-02-25T14:23:08.410Z,86.55
2019-02-25T14:25:38.352Z,94.03
2019-02-25T14:28:08.238Z,93.78
2019-02-25T14:30:36.548Z,83.78
2019-02-25T14:33:04.745Z,85.20
2019-02-25T14:35:33.016Z,96.32
2019-02-25T14:38:07.587Z,85.35
2019-02-25T14:40:32.846Z,91.63
2019-02-25T14:43:04.071Z,89.87
2019-02-25T14:45:33.975Z,86.87
2019-02-25T14:48:03.249Z,92.27
2019-02-25T14:50:31.478Z,90.75
2019-02-25T14:53:00.737Z,90.57
2019-02-25T14:55:29.462Z,91.30
2019-02-25T14:57:59.966Z,96.80
2019-02-25T15:00:28.941Z,95.72
2019-02-25T15:02:57.960Z,104.23
2019-02-25T15:05:26.194Z,110.42
2019-02-25T15:07:54.411Z,102.67
2019-02-25T15:10:26.649Z,105.65
2019-02-25T15:12:56.511Z,111.05
2019-02-25T15:15:22.903Z,105.22
2019-02-25T15:17:52.724Z,104.80
2019-02-25T15:20:22.848Z,106.43
2019-02-25T15:22:51.187Z,107.70
2019-02-25T15:25:19.461Z,110.22
2019-02-25T15:27:47.711Z,107.65
2019-02-25T15:30:20.714Z,101.47
2019-02-25T15:32:55.688Z,110.48
2019-02-25T15:35:20.503Z,114.72
2019-02-25T15:37:51.230Z,113.57
2019-02-25T15:40:22.633Z,118.82
2019-02-25T15:43:02.274Z,108.20
2019-02-25T15:45:32.871Z,107.95
2019-02-25T15:48:01.720Z,120.42
2019-02-25T15:50:30.267Z,126.20
2019-02-25T15:53:00.890Z,131.52
2019-02-25T15:55:28.661Z,130.82
2019-02-25T15:57:56.912Z,128.82
2019-02-25T16:00:27.620Z,130.55
2019-02-25T16:02:56.891Z,129.42
2019-02-25T16:05:27.397Z,127.40
2019-02-25T16:08:00.655Z,124.58
2019-02-25T16:10:29.195Z,127.70
2019-02-25T16:12:57.840Z,124.42
2019-02-25T16:15:26.529Z,131.78
2019-02-25T16:17:54.677Z,131.82
2019-02-25T16:20:22.935Z,136.68
2019-02-25T16:22:51.114Z,142.55
2019-02-25T16:25:19.340Z,135.80
2019-02-25T16:27:49.856Z,133.97
2019-02-25T16:30:19.091Z,143.35
2019-02-25T16:32:48.465Z,133.67
2019-02-25T16:35:16.744Z,132.60
2019-02-25T16:37:45.330Z,138.55
2019-02-25T16:40:13.656Z,135.57
2019-02-25T16:42:42.061Z,141.57
2019-02-25T16:45:14.205Z,132.63
2019-02-25T16:47:42.478Z,123.70
2019-02-25T16:50:12.555Z,135.30
2019-02-25T16:52:42.897Z,148.17
2019-02-25T16:55:15.357Z,144.80
2019-02-25T16:57:43.527Z,144.30
2019-02-25T17:00:14.498Z,144.85
2019-02-25T17:02:44.754Z,129.90
2019-02-25T17:05:12.782Z,141.62
2019-02-25T17:07:42.625Z,134.57
2019-02-25T17:10:14.044Z,132.60
2019-02-25T17:15:13.321Z,123.92
2019-02-25T17:17:41.528Z,125.92
2019-02-25T17:20:13.103Z,121.80
2019-02-25T17:22:41.662Z,119.80
2019-02-25T17:25:12.144Z,120.87
2019-02-25T17:27:40.453Z,119.53
2019-02-25T17:30:15.185Z,122.40
2019-02-25T17:32:44.141Z,125.72
2019-02-25T17:35:14.251Z,139.52
2019-02-25T17:37:42.492Z,125.27
2019-02-25T17:40:13.118Z,129.80
2019-02-25T17:45:13.019Z,145.47
2019-02-25T17:47:41.925Z,148.07
2019-02-25T17:50:11.601Z,148.35
2019-02-25T17:52:40.913Z,161.65
2019-02-25T17:55:13.434Z,168.93
2019-02-25T17:57:41.656Z,182.70
2019-02-25T18:00:19.624Z,170.07
2019-02-25T18:02:47.928Z,186.40
2019-02-25T18:05:16.892Z,195.68
2019-02-25T18:07:46.508Z,199.90
2019-02-25T18:10:15.360Z,217.75
2019-02-25T18:12:43.631Z,201.77
2019-02-25T18:15:17.072Z,223.87
2019-02-25T18:17:47.120Z,186.40
2019-02-25T18:20:15.686Z,195.87
2019-02-25T18:22:43.982Z,194.85
2019-02-25T18:25:12.268Z,195.57
2019-02-25T18:27:41.413Z,187.30
2019-02-25T18:30:10.015Z,217.07
2019-02-25T18:32:39.117Z,202.00
2019-02-25T18:35:08.627Z,199.82
2019-02-25T18:37:37.653Z,210.28
2019-02-25T18:40:06.620Z,204.87
2019-02-25T18:42:36.472Z,180.50
2019-02-25T18:45:08.603Z,193.60
2019-02-25T18:47:36.862Z,189.67
2019-02-25T18:50:07.943Z,203.12
2019-02-25T18:52:38.007Z,193.37
2019-02-25T18:55:08.954Z,181.65
2019-02-25T18:57:37.646Z,199.75
2019-02-25T19:00:08.499Z,178.20
2019-02-25T19:02:38.058Z,186.92
2019-02-25T19:05:10.533Z,183.55
2019-02-25T19:07:37.516Z,183.60
2019-02-25T19:10:05.790Z,188.68
2019-02-25T19:12:34.190Z,188.18
2019-02-25T19:15:04.428Z,180.55
2019-02-25T19:17:32.529Z,189.45
2019-02-25T19:20:00.988Z,194.13
2019-02-25T19:22:30.874Z,196.28
2019-02-25T19:24:59.088Z,202.30
2019-02-25T19:27:29.024Z,208.65
2019-02-25T19:30:00.184Z,197.10
2019-02-25T19:32:27.719Z,206.53
2019-02-25T19:34:56.762Z,204.80
2019-02-25T19:37:28.893Z,186.60
2019-02-25T19:39:56.249Z,180.27
2019-02-25T19:42:26.420Z,184.90
2019-02-25T19:44:56.274Z,178.53
2019-02-25T19:47:24.625Z,196.25
2019-02-25T19:49:52.906Z,185.10
2019-02-25T19:52:21.072Z,189.00
2019-02-25T19:54:50.702Z,173.40
2019-02-25T19:57:20.995Z,191.53
2019-02-25T19:59:50.583Z,192.15
2019-02-25T20:02:19.366Z,189.80
2019-02-25T20:04:50.160Z,189.65
2019-02-25T20:07:18.555Z,200.50
2019-02-25T20:09:47.947Z,209.27
2019-02-25T20:12:16.366Z,196.68
2019-02-25T20:14:46.595Z,200.05
2019-02-25T20:17:14.888Z,209.80
2019-02-25T20:19:44.039Z,210.88
2019-02-25T20:22:14.543Z,216.55
2019-02-25T20:24:46.020Z,217.72
2019-02-25T20:27:13.263Z,206.05
2019-02-25T20:29:42.442Z,232.57
2019-02-25T20:32:12.211Z,223.10
2019-02-25T20:34:40.917Z,244.10
2019-02-25T20:37:09.246Z,217.75
2019-02-25T20:39:38.661Z,264.90
2019-02-25T20:42:06.913Z,266.75
2019-02-25T20:44:35.536Z,273.18
2019-02-25T20:47:04.201Z,275.87
2019-02-25T20:49:32.729Z,303.77
2019-02-25T20:52:01.617Z,280.95
2019-02-25T20:54:29.804Z,261.92
2019-02-25T20:56:58.167Z,284.32
2019-02-25T20:59:28.086Z,287.42
2019-02-25T21:01:56.504Z,278.73
2019-02-25T21:04:24.790Z,291.27
2019-02-25T21:06:52.985Z,297.27
2019-02-25T21:09:21.321Z,297.50
2019-02-25T21:11:49.492Z,280.65
2019-02-25T21:14:17.695Z,261.05
2019-02-25T21:16:45.925Z,261.10
2019-02-25T21:19:15.561Z,254.60
2019-02-25T21:21:44.318Z,241.35
2019-02-25T21:24:13.570Z,259.92
2019-02-25T21:26:42.066Z,234.70
2019-02-25T21:29:10.219Z,263.18
2019-02-25T21:31:42.802Z,248.70
2019-02-25T21:34:08.916Z,238.57
2019-02-25T21:36:38.243Z,232.10
2019-02-25T21:39:10.047Z,280.53
2019-02-25T21:41:39.587Z,282.10
2019-02-25T21:44:08.922Z,277.77
2019-02-25T21:46:37.236Z,316.52
2019-02-25T21:49:06.617Z,267.90
2019-02-25T21:51:36.907Z,321.37
2019-02-25T21:54:06.770Z,327.85
2019-02-25T21:56:35.270Z,297.07
2019-02-25T21:59:03.496Z,269.35
2019-02-25T22:01:32.319Z,307.60
2019-02-25T22:04:01.295Z,344.27
2019-02-25T22:06:31.245Z,349.30
2019-02-25T22:09:00.835Z,362.88
2019-02-25T22:11:29.487Z,267.70
2019-02-25T22:13:57.813Z,281.40
2019-02-25T22:16:27.800Z,284.65
2019-02-25T22:18:56.605Z,285.15
2019-02-25T22:21:25.463Z,256.90
2019-02-25T22:23:56.167Z,261.80
2019-02-25T22:26:27.198Z,261.10
2019-02-25T22:28:55.408Z,261.10
2019-02-25T22:31:24.206Z,250.18
2019-02-25T22:33:52.377Z,253.92
2019-02-25T22:36:20.605Z,266.52
2019-02-25T22:38:48.829Z,268.42
2019-02-25T22:41:18.871Z,219.47
2019-02-25T22:43:48.223Z,247.73
2019-02-25T22:46:16.703Z,262.00
2019-02-25T22:48:47.113Z,257.57
2019-02-25T22:51:15.007Z,226.92
2019-02-25T22:53:43.241Z,245.15
2019-02-25T22:56:13.405Z,242.13
2019-02-25T22:58:42.964Z,229.95
2019-02-25T23:01:17.490Z,218.63
2019-02-25T23:03:45.545Z,218.70
2019-02-25T23:06:15.786Z,222.63
2019-02-25T23:08:46.443Z,236.80
2019-02-25T23:11:16.563Z,208.30
2019-02-25T23:13:45.726Z,215.30
2019-02-25T23:16:15.610Z,199.70
2019-02-25T23:18:44.550Z,213.90
2019-02-25T23:21:12.814Z,219.62
2019-02-25T23:23:41.016Z,212.50
2019-02-25T23:26:10.438Z,217.47
2019-02-25T23:28:39.001Z,202.10
2019-02-25T23:31:07.159Z,208.90
2019-02-25T23:33:38.131Z,207.70
2019-02-25T23:36:05.512Z,215.00
2019-02-25T23:38:33.695Z,201.05
2019-02-25T23:41:05.298Z,204.35
2019-02-25T23:43:35.962Z,206.10
2019-02-25T23:46:04.428Z,198.35
2019-02-25T23:48:33.687Z,194.28
2019-02-25T23:51:02.674Z,167.05
2019-02-25T23:53:32.765Z,209.75
2019-02-25T23:56:01.566Z,188.07
2019-02-25T23:58:29.911Z,191.80
